Time;durP1;ratioP1;P1;durP2;ratioP2;P2;SDS_P1;SDS_P2;PMS_P1;PMS_P2;Temp;Humidity;BMP_temperature;BMP_pressure;BME280_temperature;BME280_humidity;BME280_pressure;Samples;Min_cycle;Max_cycle;Signal;HPM_P1;HPM_P2
2022/07/29 00:01:07;;;;;;;1.95;0.52;;;;;23.20;101641.00;;;;5050178;28;20287;-77
2022/07/29 00:03:34;;;;;;;1.80;0.70;;;;;23.10;101639.00;;;;5050070;28;20206;-77
2022/07/29 00:06:01;;;;;;;0.90;0.63;;;;;23.10;101636.00;;;;5045590;28;20654;-77
2022/07/29 00:08:28;;;;;;;1.20;0.70;;;;;23.10;101636.00;;;;5049942;28;20188;-77
2022/07/29 00:10:56;;;;;;;1.65;0.50;;;;;23.10;101628.00;;;;5035328;28;20226;-77
2022/07/29 00:13:23;;;;;;;1.80;0.77;;;;;23.10;101628.00;;;;5039158;28;20207;-77
2022/07/29 00:15:52;;;;;;;1.58;0.60;;;;;23.00;101627.00;;;;5049854;28;20207;-75
2022/07/29 00:18:19;;;;;;;1.42;0.60;;;;;23.00;101619.00;;;;5049738;28;20195;-77
2022/07/29 00:20:46;;;;;;;1.13;0.68;;;;;23.00;101612.00;;;;5050220;28;20206;-77
2022/07/29 00:23:13;;;;;;;2.65;0.70;;;;;22.90;101614.00;;;;5043062;28;20200;-77
2022/07/29 00:25:41;;;;;;;2.45;0.70;;;;;22.90;101609.00;;;;5049125;28;20996;-77
2022/07/29 00:28:08;;;;;;;7.72;0.73;;;;;22.90;101604.00;;;;5049918;28;20192;-76
2022/07/29 00:30:35;;;;;;;1.08;0.57;;;;;22.80;101602.00;;;;5050008;28;20203;-77
2022/07/29 00:33:04;;;;;;;1.65;0.43;;;;;22.80;101599.00;;;;5049395;28;20200;-77
2022/07/29 00:35:45;;;;;;;1.13;0.68;;;;;22.80;101599.00;;;;5049908;28;20206;-76
2022/07/29 00:38:14;;;;;;;1.52;0.50;;;;;22.70;101601.00;;;;5043106;28;20196;-77
2022/07/29 00:40:42;;;;;;;2.08;0.80;;;;;22.70;101592.00;;;;5031914;28;20201;-78
2022/07/29 00:43:10;;;;;;;0.90;0.50;;;;;22.70;101588.00;;;;5048649;28;20204;-77
2022/07/29 00:45:37;;;;;;;0.98;0.60;;;;;22.70;101588.00;;;;5049318;28;20219;-77
2022/07/29 00:48:10;;;;;;;1.52;0.60;;;;;22.60;101586.00;;;;5049314;28;20192;-77
2022/07/29 00:50:38;;;;;;;2.90;0.73;;;;;22.60;101581.00;;;;5049568;28;20564;-77
2022/07/29 00:53:07;;;;;;;1.42;0.85;;;;;22.60;101583.00;;;;5048897;28;20246;-77
2022/07/29 00:55:35;;;;;;;1.63;0.88;;;;;22.60;101579.00;;;;5048433;28;20232;-77
2022/07/29 00:58:03;;;;;;;1.77;0.63;;;;;22.60;101580.00;;;;5046263;28;20198;-77
2022/07/29 01:00:30;;;;;;;1.13;0.60;;;;;22.50;101577.00;;;;5049275;28;20211;-78
2022/07/29 01:02:58;;;;;;;1.83;0.73;;;;;22.50;101570.00;;;;5049310;28;20192;-76
2022/07/29 01:05:28;;;;;;;4.80;0.82;;;;;22.50;101570.00;;;;5048796;28;20196;-77
2022/07/29 01:07:58;;;;;;;1.63;0.70;;;;;22.50;101563.00;;;;5049109;28;20196;-77
2022/07/29 01:10:25;;;;;;;0.77;0.50;;;;;22.40;101568.00;;;;5049689;28;20191;-77
2022/07/29 01:12:55;;;;;;;1.63;0.60;;;;;22.40;101568.00;;;;5047667;28;20236;-78
2022/07/29 01:15:23;;;;;;;2.13;0.60;;;;;22.40;101572.00;;;;5049609;28;20567;-77
2022/07/29 01:17:57;;;;;;;1.52;0.60;;;;;22.30;101568.00;;;;5044577;28;20207;-76
2022/07/29 01:20:32;;;;;;;2.10;0.77;;;;;22.30;101565.00;;;;5028856;28;20207;-78
2022/07/29 01:23:24;;;;;;;1.88;0.60;;;;;22.20;101568.00;;;;5048013;28;20227;-77
2022/07/29 01:26:20;;;;;;;1.65;0.47;;;;;22.20;101560.00;;;;5048911;28;20200;-77
2022/07/29 01:29:00;;;;;;;2.65;0.77;;;;;22.20;101565.00;;;;5042028;28;20700;-76
2022/07/29 01:31:34;;;;;;;0.80;0.50;;;;;22.20;101573.00;;;;5048016;28;20227;-77
2022/07/29 01:34:06;;;;;;;1.17;0.85;;;;;22.20;101570.00;;;;5048049;28;20206;-77
2022/07/29 01:36:36;;;;;;;1.35;0.80;;;;;22.20;101577.00;;;;5048399;28;20196;-77
2022/07/29 01:39:10;;;;;;;1.85;0.75;;;;;22.20;101573.00;;;;5047974;28;20227;-77
2022/07/29 01:41:47;;;;;;;1.00;0.80;;;;;22.20;101579.00;;;;5048623;28;20206;-77
2022/07/29 01:44:20;;;;;;;1.42;0.80;;;;;22.10;101579.00;;;;5047535;28;20641;-77
2022/07/29 01:46:53;;;;;;;3.17;1.08;;;;;22.10;101576.00;;;;5047606;28;20204;-77
2022/07/29 01:49:26;;;;;;;1.58;1.13;;;;;22.10;101582.00;;;;5043931;28;20203;-77
2022/07/29 01:51:59;;;;;;;1.90;1.00;;;;;22.10;101577.00;;;;5040747;28;20231;-77
2022/07/29 01:54:31;;;;;;;1.52;0.88;;;;;22.20;101578.00;;;;5032059;28;20216;-77
2022/07/29 01:57:00;;;;;;;0.65;0.65;;;;;22.10;101571.00;;;;5027893;28;20228;-77
2022/07/29 01:59:29;;;;;;;1.95;0.65;;;;;22.10;101577.00;;;;5045824;28;20192;-77
2022/07/29 02:01:59;;;;;;;1.75;0.90;;;;;22.10;101579.00;;;;5048321;28;20187;-75
2022/07/29 02:04:28;;;;;;;1.67;0.70;;;;;22.20;101575.00;;;;5039808;28;20196;-77
2022/07/29 02:07:01;;;;;;;2.58;0.63;;;;;22.10;101573.00;;;;5047985;28;20693;-77
2022/07/29 02:09:29;;;;;;;1.88;0.73;;;;;22.20;101572.00;;;;5047781;28;20199;-75
2022/07/29 02:11:58;;;;;;;1.20;0.80;;;;;22.20;101567.00;;;;5048099;28;21219;-75
2022/07/29 02:14:29;;;;;;;1.73;0.98;;;;;22.20;101565.00;;;;5047474;28;20215;-76
2022/07/29 02:16:59;;;;;;;1.00;0.63;;;;;22.20;101563.00;;;;5047517;28;20207;-76
2022/07/29 02:19:28;;;;;;;1.63;0.68;;;;;22.20;101567.00;;;;5047958;28;20195;-77
2022/07/29 02:21:57;;;;;;;0.70;0.60;;;;;22.20;101569.00;;;;5046892;28;20207;-76
2022/07/29 02:24:26;;;;;;;0.93;0.70;;;;;22.20;101569.00;;;;5047597;28;20195;-76
2022/07/29 02:26:57;;;;;;;0.85;0.60;;;;;22.20;101571.00;;;;5048862;28;20199;-76
2022/07/29 02:29:27;;;;;;;0.60;0.45;;;;;22.20;101567.00;;;;5047494;28;20212;-76
2022/07/29 02:31:57;;;;;;;1.35;0.57;;;;;22.20;101571.00;;;;5048206;28;20245;-76
2022/07/29 02:34:26;;;;;;;1.45;0.70;;;;;22.20;101561.00;;;;5047805;28;20191;-76
2022/07/29 02:36:55;;;;;;;2.03;0.70;;;;;22.20;101565.00;;;;5048679;28;20578;-76
2022/07/29 02:39:24;;;;;;;2.17;0.90;;;;;22.20;101563.00;;;;5032899;28;20582;-77
2022/07/29 02:41:53;;;;;;;2.53;0.60;;;;;22.20;101560.00;;;;5037466;28;20249;-76
2022/07/29 02:44:21;;;;;;;1.35;0.80;;;;;22.10;101553.00;;;;5047937;28;20202;-76
2022/07/29 02:46:54;;;;;;;1.40;0.85;;;;;22.10;101555.00;;;;5047695;28;20202;-77
2022/07/29 02:49:32;;;;;;;1.80;0.95;;;;;22.10;101557.00;;;;5033839;28;20195;-77
2022/07/29 02:52:03;;;;;;;0.98;0.80;;;;;22.10;101551.00;;;;5051519;28;20253;-76
2022/07/29 02:54:38;;;;;;;1.52;0.90;;;;;22.10;101551.00;;;;5051391;28;20216;-76
2022/07/29 02:57:11;;;;;;;3.15;1.00;;;;;22.10;101558.00;;;;5032234;28;20225;-76
2022/07/29 02:59:41;;;;;;;1.70;1.02;;;;;22.10;101556.00;;;;5051004;28;20535;-76
2022/07/29 03:02:10;;;;;;;4.03;0.95;;;;;22.10;101554.00;;;;5051943;28;20198;-76
2022/07/29 03:04:42;;;;;;;2.25;0.90;;;;;22.00;101553.00;;;;5050398;28;20202;-76
2022/07/29 03:07:11;;;;;;;1.73;0.88;;;;;22.00;101550.00;;;;5051219;28;20192;-76
2022/07/29 03:09:39;;;;;;;1.55;0.85;;;;;22.00;101555.00;;;;5051452;28;20195;-76
2022/07/29 03:12:07;;;;;;;1.88;1.20;;;;;22.00;101551.00;;;;5046098;28;20231;-76
2022/07/29 03:14:35;;;;;;;2.33;0.82;;;;;22.00;101545.00;;;;5048750;28;20203;-76
2022/07/29 03:17:04;;;;;;;1.33;0.90;;;;;22.00;101540.00;;;;5051628;28;20204;-76
2022/07/29 03:19:31;;;;;;;2.58;0.95;;;;;22.00;101544.00;;;;5050530;28;20203;-76
2022/07/29 03:22:00;;;;;;;2.50;0.60;;;;;22.00;101544.00;;;;5050485;28;20195;-76
2022/07/29 03:24:29;;;;;;;1.70;0.70;;;;;22.00;101540.00;;;;5050420;28;20678;-76
2022/07/29 03:26:58;;;;;;;1.63;0.82;;;;;22.00;101540.00;;;;5051511;28;20208;-76
2022/07/29 03:29:25;;;;;;;1.77;0.80;;;;;22.00;101540.00;;;;5043377;28;20243;-76
2022/07/29 03:31:53;;;;;;;0.90;0.80;;;;;22.00;101528.00;;;;5041154;28;20255;-76
2022/07/29 03:34:21;;;;;;;2.47;0.82;;;;;22.00;101527.00;;;;5051470;28;20211;-76
2022/07/29 03:36:49;;;;;;;0.85;0.80;;;;;22.00;101521.00;;;;5051338;28;20207;-76
2022/07/29 03:39:22;;;;;;;1.23;0.85;;;;;22.00;101525.00;;;;5051092;28;20195;-76
2022/07/29 03:41:53;;;;;;;2.55;0.90;;;;;22.00;101520.00;;;;5051057;28;20196;-76
2022/07/29 03:44:23;;;;;;;2.33;1.00;;;;;22.00;101527.00;;;;5051273;28;20198;-76
2022/07/29 03:46:54;;;;;;;2.40;0.75;;;;;22.00;101526.00;;;;5032278;28;20207;-76
2022/07/29 03:49:22;;;;;;;2.08;1.00;;;;;22.00;101515.00;;;;5046310;28;20206;-76
2022/07/29 03:51:49;;;;;;;1.55;0.85;;;;;22.00;101529.00;;;;5051000;28;20215;-76
2022/07/29 03:54:19;;;;;;;2.28;0.70;;;;;22.00;101523.00;;;;5050395;28;20226;-76
2022/07/29 03:56:50;;;;;;;1.60;0.95;;;;;22.00;101522.00;;;;5050664;28;20285;-76
2022/07/29 03:59:19;;;;;;;2.75;1.10;;;;;22.00;101519.00;;;;5050189;28;20207;-76
2022/07/29 04:01:48;;;;;;;1.52;1.20;;;;;22.00;101526.00;;;;5049889;28;20198;-76
2022/07/29 04:04:15;;;;;;;1.20;0.93;;;;;22.00;101518.00;;;;5049412;28;20202;-76
2022/07/29 04:06:44;;;;;;;2.08;1.20;;;;;22.00;101515.00;;;;5050070;28;20215;-76
2022/07/29 04:09:12;;;;;;;1.15;0.93;;;;;22.00;101520.00;;;;5049734;28;20557;-76
2022/07/29 04:11:42;;;;;;;0.75;0.75;;;;;21.90;101523.00;;;;5050500;28;20291;-76
2022/07/29 04:14:09;;;;;;;1.20;0.60;;;;;22.00;101521.00;;;;5049001;28;20568;-76
2022/07/29 04:16:37;;;;;;;0.80;0.80;;;;;22.00;101514.00;;;;5050630;28;20290;-76
2022/07/29 04:19:04;;;;;;;1.90;0.82;;;;;22.00;101517.00;;;;5050156;28;20206;-76
2022/07/29 04:21:31;;;;;;;1.17;0.90;;;;;22.00;101514.00;;;;5042297;28;20203;-76
2022/07/29 04:23:59;;;;;;;1.33;0.95;;;;;22.00;101519.00;;;;5050198;28;20203;-76
2022/07/29 04:26:27;;;;;;;1.77;0.70;;;;;22.00;101511.00;;;;5050499;28;20204;-76
2022/07/29 04:28:55;;;;;;;2.10;0.90;;;;;21.90;101511.00;;;;5050442;28;20192;-76
2022/07/29 04:31:23;;;;;;;1.13;0.80;;;;;21.90;101509.00;;;;5049870;28;20200;-76
2022/07/29 04:33:50;;;;;;;1.17;0.82;;;;;21.90;101514.00;;;;5049019;28;20220;-76
2022/07/29 04:36:17;;;;;;;0.98;0.60;;;;;21.90;101512.00;;;;5049468;28;20211;-76
2022/07/29 04:38:45;;;;;;;3.33;1.05;;;;;21.90;101512.00;;;;5041730;28;20211;-77
2022/07/29 04:41:12;;;;;;;2.03;0.70;;;;;21.90;101513.00;;;;5048786;28;20210;-76
2022/07/29 04:43:39;;;;;;;3.15;0.88;;;;;21.90;101512.00;;;;5049676;28;20196;-76
2022/07/29 04:46:08;;;;;;;2.05;0.50;;;;;21.90;101513.00;;;;5049588;28;20188;-76
2022/07/29 04:48:35;;;;;;;1.80;0.70;;;;;21.90;101522.00;;;;5049375;28;20200;-76
2022/07/29 04:51:02;;;;;;;2.15;1.20;;;;;21.90;101519.00;;;;5048648;28;20580;-76
2022/07/29 04:53:30;;;;;;;2.45;0.70;;;;;21.90;101521.00;;;;5048412;28;20403;-76
2022/07/29 04:55:57;;;;;;;1.58;1.00;;;;;21.90;101526.00;;;;5048733;28;20227;-76
2022/07/29 04:58:24;;;;;;;1.40;0.60;;;;;21.90;101522.00;;;;5049751;28;20670;-76
2022/07/29 05:00:52;;;;;;;0.80;0.68;;;;;21.90;101525.00;;;;5049417;28;20191;-77
2022/07/29 05:03:20;;;;;;;11.80;0.90;;;;;21.90;101530.00;;;;5050290;28;20191;-76
2022/07/29 05:05:48;;;;;;;1.50;0.73;;;;;22.00;101522.00;;;;5049447;28;20200;-77
2022/07/29 05:08:15;;;;;;;2.40;0.70;;;;;22.00;101519.00;;;;5048409;28;20777;-77
2022/07/29 05:10:42;;;;;;;1.33;0.93;;;;;22.00;101530.00;;;;5048751;28;20567;-76
2022/07/29 05:13:10;;;;;;;0.50;0.47;;;;;22.00;101525.00;;;;5048146;28;20224;-76
2022/07/29 05:15:37;;;;;;;3.08;0.70;;;;;22.00;101534.00;;;;5049047;28;20562;-76
2022/07/29 05:18:05;;;;;;;1.50;0.80;;;;;22.00;101527.00;;;;5049119;28;20188;-77
2022/07/29 05:20:34;;;;;;;1.33;1.00;;;;;22.00;101535.00;;;;5048120;28;20206;-77
2022/07/29 05:23:03;;;;;;;1.88;0.70;;;;;22.00;101537.00;;;;5048550;28;20196;-76
2022/07/29 05:25:31;;;;;;;1.35;0.82;;;;;22.10;101546.00;;;;5048822;28;20192;-76
2022/07/29 05:27:58;;;;;;;1.92;0.80;;;;;22.10;101553.00;;;;5045562;28;20212;-76
2022/07/29 05:30:25;;;;;;;2.05;0.90;;;;;22.10;101539.00;;;;5044918;28;20231;-76
2022/07/29 05:32:53;;;;;;;1.10;0.75;;;;;22.10;101553.00;;;;5048495;28;20697;-76
2022/07/29 05:35:20;;;;;;;1.08;0.90;;;;;22.10;101551.00;;;;5047689;28;20207;-76
2022/07/29 05:37:49;;;;;;;0.82;0.68;;;;;22.10;101555.00;;;;5048447;28;20678;-76
2022/07/29 05:40:16;;;;;;;0.75;0.55;;;;;22.20;101550.00;;;;5048140;28;20199;-76
2022/07/29 05:42:43;;;;;;;0.98;0.85;;;;;22.20;101553.00;;;;5048639;28;20207;-76
2022/07/29 05:45:11;;;;;;;1.05;0.95;;;;;22.20;101551.00;;;;5042462;28;20204;-76
2022/07/29 05:47:38;;;;;;;1.40;1.13;;;;;22.20;101548.00;;;;5029772;28;20686;-76
2022/07/29 05:50:07;;;;;;;0.77;0.60;;;;;22.30;101548.00;;;;5048528;28;20207;-76
2022/07/29 05:52:34;;;;;;;2.22;1.00;;;;;22.30;101552.00;;;;5047435;28;20215;-76
2022/07/29 05:55:05;;;;;;;1.38;0.85;;;;;22.30;101553.00;;;;5047620;28;20216;-77
2022/07/29 05:57:33;;;;;;;1.90;0.80;;;;;22.40;101553.00;;;;5045315;28;20846;-76
2022/07/29 06:00:00;;;;;;;1.08;0.80;;;;;22.40;101554.00;;;;5044291;28;20196;-77
2022/07/29 06:02:28;;;;;;;4.70;1.45;;;;;22.40;101548.00;;;;5039325;28;20318;-77
2022/07/29 06:04:56;;;;;;;2.83;1.02;;;;;22.40;101547.00;;;;5048837;28;20191;-76
2022/07/29 06:07:23;;;;;;;3.28;1.20;;;;;22.40;101561.00;;;;5047554;28;20196;-76
2022/07/29 06:09:50;;;;;;;2.03;0.90;;;;;22.50;101566.00;;;;5047795;28;20196;-76
2022/07/29 06:12:19;;;;;;;4.45;1.00;;;;;22.50;101573.00;;;;5047783;28;20187;-77
2022/07/29 06:14:46;;;;;;;1.45;0.88;;;;;22.50;101568.00;;;;5048268;28;20211;-76
2022/07/29 06:17:14;;;;;;;2.50;1.33;;;;;22.50;101580.00;;;;5047753;28;20192;-76
2022/07/29 06:19:41;;;;;;;1.85;0.90;;;;;22.50;101581.00;;;;5038020;28;20217;-76
2022/07/29 06:22:09;;;;;;;2.25;0.88;;;;;22.60;101590.00;;;;5043849;28;20617;-76
2022/07/29 06:24:41;;;;;;;1.35;1.00;;;;;22.60;101587.00;;;;5047932;28;20196;-77
2022/07/29 06:27:09;;;;;;;1.27;0.95;;;;;22.60;101589.00;;;;5047783;28;20235;-76
2022/07/29 06:29:38;;;;;;;1.45;0.80;;;;;22.70;101587.00;;;;5047937;28;20570;-76
2022/07/29 06:32:06;;;;;;;2.25;1.10;;;;;22.80;101580.00;;;;5048035;28;20188;-76
2022/07/29 06:34:33;;;;;;;1.02;0.93;;;;;22.80;101580.00;;;;5046899;28;20728;-76
2022/07/29 06:37:02;;;;;;;1.52;1.08;;;;;22.90;101581.00;;;;5046119;28;20204;-76
2022/07/29 06:39:29;;;;;;;3.88;0.98;;;;;22.90;101591.00;;;;5047390;28;20227;-77
2022/07/29 06:41:57;;;;;;;1.10;0.90;;;;;22.90;101599.00;;;;5047541;28;20191;-76
2022/07/29 06:44:24;;;;;;;2.42;1.00;;;;;23.00;101601.00;;;;5047495;28;20279;-76
2022/07/29 06:46:54;;;;;;;1.20;1.00;;;;;23.00;101594.00;;;;5047850;28;20192;-77
2022/07/29 06:49:21;;;;;;;1.40;1.02;;;;;23.00;101600.00;;;;5047519;28;20200;-77
2022/07/29 06:51:49;;;;;;;1.75;0.90;;;;;23.00;101601.00;;;;5048448;28;20195;-76
2022/07/29 06:54:16;;;;;;;1.25;0.80;;;;;23.00;101600.00;;;;5045777;28;20222;-77
2022/07/29 06:56:44;;;;;;;3.63;1.20;;;;;23.00;101606.00;;;;5048273;28;20231;-76
2022/07/29 06:59:12;;;;;;;1.65;1.17;;;;;23.10;101598.00;;;;5047322;28;20191;-76
2022/07/29 07:01:41;;;;;;;3.42;1.20;;;;;23.20;101593.00;;;;5048393;28;20214;-77
2022/07/29 07:04:11;;;;;;;1.77;1.20;;;;;23.30;101600.00;;;;5047261;28;20202;-77
2022/07/29 07:06:41;;;;;;;3.30;1.00;;;;;23.40;101600.00;;;;5047261;28;20210;-76
2022/07/29 07:09:08;;;;;;;2.90;1.08;;;;;23.50;101598.00;;;;5046352;28;20198;-77
2022/07/29 07:11:36;;;;;;;2.88;1.60;;;;;23.60;101606.00;;;;5047161;28;20200;-76
2022/07/29 07:14:04;;;;;;;2.42;1.35;;;;;23.70;101607.00;;;;5046718;28;20226;-77
2022/07/29 07:16:32;;;;;;;1.48;1.05;;;;;23.80;101612.00;;;;5029192;28;20204;-76
2022/07/29 07:18:59;;;;;;;1.63;1.10;;;;;24.00;101614.00;;;;5046758;28;20227;-76
2022/07/29 07:21:28;;;;;;;3.05;1.25;;;;;24.10;101609.00;;;;5046513;28;20203;-76
2022/07/29 07:23:55;;;;;;;3.15;1.25;;;;;24.20;101604.00;;;;5047364;28;20196;-76
2022/07/29 07:26:22;;;;;;;3.17;1.30;;;;;24.30;101601.00;;;;5046771;28;20208;-77
2022/07/29 07:28:50;;;;;;;2.22;1.20;;;;;24.40;101592.00;;;;5045186;28;20196;-77
2022/07/29 07:31:17;;;;;;;1.77;1.40;;;;;24.50;101589.00;;;;5047018;28;20206;-76
2022/07/29 07:33:44;;;;;;;1.00;0.90;;;;;24.60;101593.00;;;;5031614;28;20224;-76
2022/07/29 07:36:11;;;;;;;8.23;1.10;;;;;24.70;101585.00;;;;5047162;28;20196;-77
2022/07/29 07:38:40;;;;;;;2.92;1.23;;;;;24.80;101588.00;;;;5051013;28;20230;-76
2022/07/29 07:41:07;;;;;;;1.95;1.30;;;;;24.80;101586.00;;;;5051361;28;20188;-76
2022/07/29 07:43:35;;;;;;;2.33;1.23;;;;;24.90;101590.00;;;;5050768;28;20591;-77
2022/07/29 07:46:02;;;;;;;2.28;1.30;;;;;24.90;101585.00;;;;5046155;28;20202;-77
2022/07/29 07:48:29;;;;;;;2.08;1.10;;;;;25.00;101591.00;;;;5050835;28;21091;-77
2022/07/29 07:50:57;;;;;;;1.60;1.30;;;;;25.00;101590.00;;;;5051457;28;20198;-76
2022/07/29 07:53:24;;;;;;;2.05;1.00;;;;;25.10;101595.00;;;;5051041;28;20230;-77
2022/07/29 07:55:52;;;;;;;1.83;1.20;;;;;25.10;101604.00;;;;5051010;28;20219;-77
2022/07/29 07:58:20;;;;;;;1.95;1.10;;;;;25.20;101590.00;;;;5050384;28;20207;-76
2022/07/29 08:00:47;;;;;;;2.47;1.15;;;;;25.20;101590.00;;;;5047940;28;20327;-77
2022/07/29 08:03:15;;;;;;;3.67;1.40;;;;;25.30;101587.00;;;;5031381;28;20236;-76
2022/07/29 08:05:42;;;;;;;1.48;1.27;;;;;25.30;101581.00;;;;5030392;28;20215;-76
2022/07/29 08:08:09;;;;;;;1.98;1.13;;;;;25.40;101581.00;;;;5044388;28;20198;-76
2022/07/29 08:10:56;;;;;;;1.23;0.98;;;;;25.40;101581.00;;;;5050868;28;20196;-77
2022/07/29 08:13:29;;;;;;;1.15;0.93;;;;;25.40;101571.00;;;;5050615;28;20976;-77
2022/07/29 08:16:01;;;;;;;2.67;1.15;;;;;25.50;101575.00;;;;5049672;28;20199;-77
2022/07/29 08:18:29;;;;;;;3.10;0.98;;;;;25.60;101577.00;;;;5041968;28;20623;-77
2022/07/29 08:20:57;;;;;;;1.30;1.10;;;;;25.70;101578.00;;;;5042811;28;20674;-76
2022/07/29 08:23:26;;;;;;;3.55;1.35;;;;;25.80;101577.00;;;;5050136;28;20196;-77
2022/07/29 08:25:53;;;;;;;2.65;1.20;;;;;25.80;101585.00;;;;5050784;28;20253;-77
2022/07/29 08:28:21;;;;;;;3.78;1.25;;;;;25.90;101587.00;;;;5049038;28;20756;-77
2022/07/29 08:30:50;;;;;;;2.42;1.38;;;;;25.90;101589.00;;;;5050244;28;20199;-77
2022/07/29 08:33:17;;;;;;;1.02;0.93;;;;;26.00;101590.00;;;;5050054;28;20568;-76
2022/07/29 08:35:45;;;;;;;2.60;1.42;;;;;26.00;101589.00;;;;5040609;28;20207;-76
2022/07/29 08:38:12;;;;;;;1.85;0.90;;;;;26.00;101593.00;;;;5050307;28;20231;-77
2022/07/29 08:40:40;;;;;;;4.38;1.20;;;;;26.10;101591.00;;;;5050312;28;20200;-77
2022/07/29 08:43:08;;;;;;;2.00;1.10;;;;;26.10;101599.00;;;;5050035;28;20196;-77
2022/07/29 08:45:45;;;;;;;2.22;0.98;;;;;26.10;101603.00;;;;5046972;28;20215;-77
2022/07/29 08:48:15;;;;;;;0.88;0.85;;;;;26.20;101598.00;;;;5045367;28;20215;-77
2022/07/29 08:50:44;;;;;;;1.08;0.80;;;;;26.30;101603.00;;;;5033613;28;20192;-77
2022/07/29 08:53:14;;;;;;;1.67;0.95;;;;;26.30;101606.00;;;;5035845;28;20203;-77
2022/07/29 08:55:43;;;;;;;2.83;1.00;;;;;26.40;101605.00;;;;5035166;28;20226;-77
2022/07/29 08:58:11;;;;;;;2.83;1.17;;;;;26.50;101601.00;;;;5049544;28;20515;-76
2022/07/29 09:00:43;;;;;;;2.70;1.10;;;;;26.60;101602.00;;;;5049454;28;20202;-77
2022/07/29 09:03:16;;;;;;;1.33;1.00;;;;;26.70;101597.00;;;;5048537;28;20199;-77
2022/07/29 09:05:43;;;;;;;2.92;0.95;;;;;26.90;101590.00;;;;5030393;28;20678;-77
2022/07/29 09:08:11;;;;;;;2.47;0.90;;;;;27.10;101595.00;;;;5030001;28;20205;-77
2022/07/29 09:10:39;;;;;;;1.58;0.95;;;;;27.30;101596.00;;;;5032264;28;20196;-77
2022/07/29 09:13:06;;;;;;;2.15;1.15;;;;;27.50;101606.00;;;;5048629;28;20207;-77
2022/07/29 09:15:34;;;;;;;2.05;0.73;;;;;27.70;101598.00;;;;5049148;28;20199;-77
2022/07/29 09:18:04;;;;;;;2.28;1.00;;;;;27.80;101596.00;;;;5049104;28;20215;-77
2022/07/29 09:23:14;;;;;;;2.35;0.90;;;;;28.10;101595.00;;;;5029175;28;20204;-77
2022/07/29 09:25:42;;;;;;;1.75;1.15;;;;;28.20;101590.00;;;;5047647;28;20196;-77
2022/07/29 09:28:13;;;;;;;1.02;0.90;;;;;28.30;101587.00;;;;5042291;28;20192;-77
2022/07/29 09:30:51;;;;;;;1.85;1.08;;;;;28.30;101589.00;;;;5048377;28;20658;-77
2022/07/29 09:33:19;;;;;;;1.60;0.90;;;;;28.50;101582.00;;;;5047718;28;20312;-77
2022/07/29 09:35:59;;;;;;;1.58;0.90;;;;;28.70;101585.00;;;;5048551;28;20206;-77
2022/07/29 09:38:26;;;;;;;3.75;0.98;;;;;28.90;101577.00;;;;5049336;28;20211;-77
2022/07/29 09:40:58;;;;;;;5.35;1.13;;;;;29.00;101582.00;;;;5048892;28;20195;-77
2022/07/29 09:43:25;;;;;;;2.55;1.08;;;;;29.20;101589.00;;;;5047883;28;20200;-77
2022/07/29 09:45:53;;;;;;;1.27;0.70;;;;;29.30;101586.00;;;;5048149;28;20210;-77
2022/07/29 09:48:23;;;;;;;1.45;0.90;;;;;29.50;101588.00;;;;5048368;28;20248;-77
2022/07/29 09:50:53;;;;;;;1.20;0.90;;;;;29.60;101586.00;;;;5048568;28;20195;-77
2022/07/29 09:53:34;;;;;;;0.88;0.73;;;;;29.60;101580.00;;;;5048558;28;20196;-77
2022/07/29 09:56:02;;;;;;;1.45;0.80;;;;;29.90;101577.00;;;;5048192;28;20235;-77
2022/07/29 09:58:29;;;;;;;3.85;1.23;;;;;30.00;101585.00;;;;5047092;28;20204;-77
2022/07/29 10:00:57;;;;;;;1.70;0.90;;;;;30.10;101583.00;;;;5045710;28;20233;-77
2022/07/29 10:03:24;;;;;;;0.70;0.57;;;;;30.30;101593.00;;;;5048369;28;20261;-77
2022/07/29 10:06:08;;;;;;;1.42;0.80;;;;;30.30;101584.00;;;;5047739;28;20203;-77
2022/07/29 10:08:35;;;;;;;0.90;0.70;;;;;30.50;101588.00;;;;5049087;28;20294;-77
2022/07/29 10:11:13;;;;;;;1.33;0.68;;;;;30.60;101591.00;;;;5048097;28;20243;-77
2022/07/29 10:13:41;;;;;;;1.08;0.60;;;;;30.80;101587.00;;;;5047634;28;20203;-77
2022/07/29 10:16:09;;;;;;;4.90;1.10;;;;;30.90;101582.00;;;;5047822;28;20196;-77
2022/07/29 10:18:38;;;;;;;2.65;0.55;;;;;31.00;101585.00;;;;5031113;28;20485;-77
2022/07/29 10:21:07;;;;;;;1.25;0.77;;;;;31.10;101590.00;;;;5040149;28;20200;-77
2022/07/29 10:23:35;;;;;;;0.80;0.80;;;;;31.20;101592.00;;;;5048300;28;20235;-78
2022/07/29 10:26:03;;;;;;;0.80;0.75;;;;;31.30;101590.00;;;;5047187;28;20252;-78
2022/07/29 10:28:31;;;;;;;1.70;1.00;;;;;31.40;101582.00;;;;5047565;28;20187;-78
2022/07/29 10:31:05;;;;;;;5.70;1.05;;;;;31.40;101584.00;;;;5047572;28;20210;-77
2022/07/29 10:33:48;;;;;;;1.95;0.73;;;;;31.50;101588.00;;;;5046630;28;20199;-77
2022/07/29 10:36:30;;;;;;;1.88;0.90;;;;;31.60;101587.00;;;;5046959;28;20207;-77
2022/07/29 10:39:06;;;;;;;4.35;0.85;;;;;31.70;101583.00;;;;5047705;28;20203;-77
2022/07/29 10:41:56;;;;;;;3.80;0.93;;;;;31.70;101593.00;;;;5047414;28;20203;-77
2022/07/29 10:44:26;;;;;;;2.70;1.08;;;;;31.80;101579.00;;;;5048012;28;20191;-77
2022/07/29 10:46:55;;;;;;;1.48;0.60;;;;;31.90;101580.00;;;;5046659;28;20669;-77
2022/07/29 10:49:24;;;;;;;3.30;1.55;;;;;32.00;101578.00;;;;5047138;28;20203;-77
2022/07/29 10:52:07;;;;;;;1.42;0.85;;;;;31.90;101587.00;;;;5036050;28;20208;-78
2022/07/29 10:54:47;;;;;;;1.35;0.73;;;;;31.90;101582.00;;;;5027830;28;20238;-77
2022/07/29 10:57:16;;;;;;;1.38;0.90;;;;;32.00;101582.00;;;;5046738;28;20808;-76
2022/07/29 10:59:45;;;;;;;2.58;1.00;;;;;31.90;101583.00;;;;5047806;28;20666;-77
2022/07/29 11:02:51;;;;;;;2.92;1.20;;;;;31.70;101590.00;;;;5047012;28;20196;-76
2022/07/29 11:05:20;;;;;;;1.08;0.77;;;;;31.80;101595.00;;;;4985925;28;20304;-76
2022/07/29 11:08:22;;;;;;;6.75;1.05;;;;;31.60;101595.00;;;;4983212;28;20218;-76
2022/07/29 11:10:51;;;;;;;2.03;0.93;;;;;31.70;101595.00;;;;5018992;28;20210;-77
2022/07/29 11:13:47;;;;;;;2.10;0.88;;;;;31.50;101587.00;;;;5050731;28;20210;-76
2022/07/29 11:16:15;;;;;;;2.63;0.80;;;;;31.60;101594.00;;;;5036737;28;20593;-76
2022/07/29 11:19:22;;;;;;;1.60;0.98;;;;;31.50;101585.00;;;;5052070;28;20207;-76
2022/07/29 11:21:51;;;;;;;2.15;0.85;;;;;31.60;101583.00;;;;5048800;28;20252;-76
2022/07/29 11:24:23;;;;;;;2.58;1.13;;;;;31.70;101587.00;;;;5051848;28;20577;-76
2022/07/29 11:27:17;;;;;;;1.95;1.02;;;;;31.60;101585.00;;;;5050047;28;20199;-76
2022/07/29 11:29:53;;;;;;;1.67;0.80;;;;;31.60;101586.00;;;;5051427;28;20203;-76
2022/07/29 11:32:22;;;;;;;2.10;0.98;;;;;31.70;101592.00;;;;5050717;28;20195;-76
2022/07/29 11:34:50;;;;;;;0.98;0.90;;;;;31.60;101588.00;;;;5050791;28;20227;-77
2022/07/29 11:37:24;;;;;;;5.22;0.90;;;;;31.60;101583.00;;;;5050377;28;20601;-77
2022/07/29 11:40:12;;;;;;;2.50;1.00;;;;;31.50;101580.00;;;;5051060;28;20282;-77
2022/07/29 11:42:45;;;;;;;4.57;1.00;;;;;31.60;101588.00;;;;5040310;28;20226;-76
2022/07/29 11:45:28;;;;;;;2.63;1.05;;;;;31.60;101584.00;;;;5031575;28;20203;-76
2022/07/29 11:48:00;;;;;;;3.00;1.13;;;;;31.60;101590.00;;;;5037915;28;20208;-76
2022/07/29 11:50:35;;;;;;;3.58;1.48;;;;;31.60;101582.00;;;;5041871;28;20207;-77
2022/07/29 11:53:11;;;;;;;1.30;0.88;;;;;31.60;101584.00;;;;5050570;28;20665;-77
2022/07/29 11:55:40;;;;;;;1.67;1.35;;;;;31.60;101579.00;;;;5049387;28;20262;-76
2022/07/29 11:58:09;;;;;;;2.65;1.50;;;;;31.50;101586.00;;;;5050610;28;20203;-76
2022/07/29 12:00:38;;;;;;;1.85;1.17;;;;;31.60;101584.00;;;;5041051;28;20688;-76
2022/07/29 12:03:08;;;;;;;2.05;0.98;;;;;31.50;101590.00;;;;5050527;28;20258;-76
2022/07/29 12:05:39;;;;;;;1.23;1.00;;;;;31.50;101586.00;;;;5050849;28;20199;-77
2022/07/29 12:08:12;;;;;;;1.08;0.90;;;;;31.50;101590.00;;;;5049987;28;20188;-77
2022/07/29 12:10:40;;;;;;;3.28;1.33;;;;;31.50;101588.00;;;;5049551;28;20196;-77
2022/07/29 12:13:09;;;;;;;2.40;1.48;;;;;31.50;101582.00;;;;5049746;28;20192;-76
2022/07/29 12:15:37;;;;;;;3.92;1.20;;;;;31.60;101587.00;;;;5048810;28;20220;-76
2022/07/29 12:18:18;;;;;;;1.90;1.30;;;;;31.50;101582.00;;;;5029584;28;21039;-76
2022/07/29 12:20:46;;;;;;;2.30;1.67;;;;;31.60;101592.00;;;;5042778;28;20196;-77
2022/07/29 12:23:16;;;;;;;1.98;1.38;;;;;31.60;101593.00;;;;5049571;28;20203;-77
2022/07/29 12:25:44;;;;;;;1.80;1.17;;;;;31.60;101589.00;;;;5049838;28;20197;-77